createdAt,value
2018-08-23T00:00:44.444Z,19.32
2018-08-23T00:03:48.850Z,19.30
2018-08-23T00:07:00.433Z,19.29
2018-08-23T00:10:04.845Z,19.23
2018-08-23T00:13:09.260Z,19.29
2018-08-23T00:16:13.967Z,19.31
2018-08-23T00:19:18.477Z,19.23
2018-08-23T00:22:27.116Z,19.20
2018-08-23T00:25:32.689Z,19.18
2018-08-23T00:28:37.217Z,19.19
2018-08-23T00:31:41.989Z,19.18
2018-08-23T00:34:46.437Z,19.23
2018-08-23T00:37:50.795Z,19.27
2018-08-23T00:40:55.288Z,19.15
2018-08-23T00:43:59.666Z,19.07
2018-08-23T00:47:04.338Z,19.05
2018-08-23T00:50:08.993Z,19.04
2018-08-23T00:53:13.377Z,19.04
2018-08-23T00:56:23.665Z,19.13
2018-08-23T00:59:28.140Z,19.14
2018-08-23T01:02:32.815Z,19.14
2018-08-23T01:05:38.581Z,19.07
2018-08-23T01:08:43.052Z,19.23
2018-08-23T01:11:47.771Z,19.61
2018-08-23T01:14:53.244Z,19.19
2018-08-23T01:18:13.168Z,18.82
2018-08-23T01:21:23.758Z,18.67
2018-08-23T01:24:31.648Z,18.85
2018-08-23T01:27:38.187Z,18.52
2018-08-23T01:30:42.957Z,18.57
2018-08-23T01:33:47.595Z,18.47
2018-08-23T01:36:52.005Z,18.26
2018-08-23T01:39:56.463Z,18.33
2018-08-23T01:43:00.998Z,18.20
2018-08-23T01:46:05.350Z,18.32
2018-08-23T01:49:09.820Z,18.19
2018-08-23T01:52:14.321Z,18.04
2018-08-23T01:55:19.781Z,18.04
2018-08-23T01:58:24.178Z,17.96
2018-08-23T02:01:36.853Z,17.97
2018-08-23T02:04:41.187Z,17.95
2018-08-23T02:07:45.549Z,17.93
2018-08-23T02:10:49.893Z,17.93
2018-08-23T02:13:54.229Z,17.94
2018-08-23T02:16:58.631Z,17.96
2018-08-23T02:20:03.069Z,18.08
2018-08-23T02:23:07.447Z,18.04
2018-08-23T02:26:12.007Z,18.07
2018-08-23T02:29:20.801Z,18.02
2018-08-23T02:32:25.153Z,18.03
2018-08-23T02:35:29.563Z,17.92
2018-08-23T02:38:34.651Z,17.89
2018-08-23T02:41:41.378Z,17.83
2018-08-23T02:44:46.918Z,17.89
2018-08-23T02:47:51.202Z,17.97
2018-08-23T02:50:55.582Z,17.99
2018-08-23T02:53:59.950Z,17.98
2018-08-23T02:57:08.881Z,18.03
2018-08-23T03:00:13.338Z,17.94
2018-08-23T03:03:17.927Z,18.01
2018-08-23T03:06:30.646Z,17.96
2018-08-23T03:09:36.228Z,17.87
2018-08-23T03:12:40.992Z,18.04
2018-08-23T03:15:46.818Z,18.03
2018-08-23T03:18:51.324Z,18.03
2018-08-23T03:22:01.029Z,17.98
2018-08-23T03:25:07.122Z,17.85
2018-08-23T03:28:12.150Z,17.82
2018-08-23T03:31:17.120Z,17.74
2018-08-23T03:34:21.454Z,17.76
2018-08-23T03:37:26.351Z,17.86
2018-08-23T03:40:30.769Z,17.76
2018-08-23T03:43:35.135Z,17.70
2018-08-23T03:46:53.557Z,17.74
2018-08-23T03:49:57.956Z,17.84
2018-08-23T03:53:02.367Z,17.76
2018-08-23T03:56:09.682Z,17.70
2018-08-23T03:59:14.066Z,17.63
2018-08-23T04:02:20.278Z,17.60
2018-08-23T04:05:24.657Z,17.61
2018-08-23T04:08:29.166Z,17.54
2018-08-23T04:11:33.544Z,17.58
2018-08-23T04:14:38.398Z,17.59
2018-08-23T04:17:42.770Z,17.57
2018-08-23T04:20:55.599Z,17.56
2018-08-23T04:24:03.704Z,17.63
2018-08-23T04:27:08.841Z,17.58
2018-08-23T04:30:13.211Z,17.61
2018-08-23T04:33:17.576Z,17.61
2018-08-23T04:36:30.319Z,17.61
2018-08-23T04:39:34.886Z,17.63
2018-08-23T04:42:39.282Z,17.67
2018-08-23T04:45:43.626Z,17.78
2018-08-23T04:48:50.992Z,17.92
2018-08-23T04:51:55.403Z,17.77
2018-08-23T04:54:59.939Z,18.00
2018-08-23T04:58:04.978Z,17.91
2018-08-23T05:01:09.358Z,17.95
2018-08-23T05:04:13.841Z,18.14
2018-08-23T05:07:18.230Z,18.30
2018-08-23T05:10:22.869Z,18.54
2018-08-23T05:13:27.332Z,18.40
2018-08-23T05:16:31.702Z,18.48
2018-08-23T05:19:36.034Z,18.51
2018-08-23T05:22:46.947Z,18.60
2018-08-23T05:25:56.021Z,18.65
2018-08-23T05:29:04.366Z,18.74
2018-08-23T05:32:08.715Z,18.87
2018-08-23T05:35:13.081Z,19.03
2018-08-23T05:38:18.469Z,19.18
2018-08-23T05:41:22.983Z,19.30
2018-08-23T05:44:27.490Z,19.55
2018-08-23T05:47:32.664Z,19.65
2018-08-23T05:50:39.085Z,19.85
2018-08-23T05:53:50.756Z,20.04
2018-08-23T05:56:55.221Z,20.31
2018-08-23T05:59:59.666Z,20.52
2018-08-23T06:03:04.817Z,21.33
2018-08-23T06:06:10.011Z,23.17
2018-08-23T06:09:16.563Z,24.70
2018-08-23T06:12:21.335Z,25.15
2018-08-23T06:15:25.789Z,25.29
2018-08-23T06:18:32.597Z,25.80
2018-08-23T06:21:36.979Z,26.55
2018-08-23T06:24:41.495Z,26.66
2018-08-23T06:27:45.942Z,26.31
2018-08-23T06:30:55.287Z,26.69
2018-08-23T06:34:00.418Z,26.72
2018-08-23T06:37:04.877Z,27.77
2018-08-23T06:40:09.368Z,29.05
2018-08-23T06:43:13.941Z,29.60
2018-08-23T06:46:20.315Z,30.04
2018-08-23T06:49:24.777Z,30.48
2018-08-23T06:53:01.475Z,31.17
2018-08-23T06:56:05.890Z,31.07
2018-08-23T06:59:11.574Z,31.23
2018-08-23T07:02:16.452Z,30.97
2018-08-23T07:05:21.074Z,29.76
2018-08-23T07:08:25.449Z,28.66
2018-08-23T07:11:30.127Z,28.29
2018-08-23T07:14:35.918Z,26.76
2018-08-23T07:17:40.579Z,27.42
2018-08-23T07:20:44.854Z,28.36
2018-08-23T07:23:49.251Z,29.50
2018-08-23T07:26:53.679Z,29.71
2018-08-23T07:29:59.102Z,29.47
2018-08-23T07:33:03.646Z,29.08
2018-08-23T07:36:30.659Z,29.56
2018-08-23T07:39:35.334Z,29.58
2018-08-23T07:42:40.929Z,28.42
2018-08-23T07:45:45.347Z,28.77
2018-08-23T07:48:49.724Z,29.33
2018-08-23T07:51:54.302Z,28.80
2018-08-23T07:55:00.154Z,28.58
2018-08-23T07:58:04.670Z,28.31
2018-08-23T08:01:10.676Z,28.29
2018-08-23T08:04:15.708Z,27.35
2018-08-23T08:07:25.910Z,28.94
2018-08-23T08:10:37.016Z,29.19
2018-08-23T08:13:41.513Z,29.73
2018-08-23T08:16:46.253Z,30.20
2018-08-23T08:19:56.579Z,29.92
2018-08-23T08:23:01.730Z,30.58
2018-08-23T08:26:06.364Z,31.34
2018-08-23T08:29:11.155Z,31.47
2018-08-23T08:32:17.539Z,31.47
2018-08-23T08:35:22.107Z,32.12
2018-08-23T08:38:26.541Z,32.07
2018-08-23T08:41:38.116Z,30.76
2018-08-23T08:44:42.545Z,28.78
2018-08-23T08:47:47.634Z,29.79
2018-08-23T08:51:14.342Z,30.68
2018-08-23T08:54:18.992Z,29.54
2018-08-23T08:57:29.622Z,29.29
2018-08-23T09:00:53.580Z,29.70
2018-08-23T09:03:58.116Z,30.05
2018-08-23T09:07:02.538Z,30.34
2018-08-23T09:10:07.248Z,29.96
2018-08-23T09:13:11.705Z,29.48
2018-08-23T09:16:16.629Z,29.56
2018-08-23T09:19:21.220Z,29.81
2018-08-23T09:22:25.714Z,30.10
2018-08-23T09:25:35.308Z,30.32
2018-08-23T09:28:39.726Z,30.10
2018-08-23T09:31:44.205Z,29.98
2018-08-23T09:34:49.023Z,29.82
2018-08-23T09:37:56.775Z,29.83
2018-08-23T09:41:01.303Z,29.17
2018-08-23T09:44:06.069Z,28.90
2018-08-23T09:47:10.502Z,28.68
2018-08-23T09:50:15.068Z,28.71
2018-08-23T09:53:25.179Z,28.13
2018-08-23T09:56:29.607Z,28.59
2018-08-23T09:59:37.502Z,28.92
2018-08-23T10:02:47.037Z,28.58
2018-08-23T10:05:56.888Z,28.05
2018-08-23T10:09:15.554Z,28.39
2018-08-23T10:12:25.154Z,28.71
2018-08-23T10:15:35.951Z,29.07
2018-08-23T10:18:46.737Z,29.34
2018-08-23T10:21:56.486Z,29.66
2018-08-23T10:25:05.189Z,29.54
2018-08-23T10:28:11.910Z,29.69
2018-08-23T10:31:16.439Z,29.83
2018-08-23T10:34:20.915Z,29.78
2018-08-23T10:37:25.512Z,29.77
2018-08-23T10:40:30.131Z,29.92
2018-08-23T10:43:39.968Z,29.94
2018-08-23T10:46:49.908Z,30.00
2018-08-23T10:49:54.514Z,29.30
2018-08-23T10:52:59.052Z,29.31
2018-08-23T10:56:03.670Z,29.76
2018-08-23T10:59:08.514Z,30.13
2018-08-23T11:02:12.985Z,30.22
2018-08-23T11:05:17.829Z,30.22
2018-08-23T11:08:25.215Z,30.30
2018-08-23T11:11:32.642Z,30.24
2018-08-23T11:14:41.081Z,30.28
2018-08-23T11:17:51.234Z,29.95
2018-08-23T11:20:55.733Z,29.94
2018-08-23T11:24:00.307Z,30.55
2018-08-23T11:27:04.759Z,30.38
2018-08-23T11:30:09.222Z,30.17
2018-08-23T11:33:13.755Z,30.44
2018-08-23T11:36:19.326Z,29.96
2018-08-23T11:39:24.344Z,29.29
2018-08-23T11:42:28.930Z,29.28
2018-08-23T11:45:33.896Z,29.17
2018-08-23T11:48:38.491Z,29.14
2018-08-23T11:51:42.954Z,29.20
2018-08-23T11:54:47.510Z,29.49
2018-08-23T11:57:52.079Z,29.25
2018-08-23T12:01:01.878Z,29.18
2018-08-23T12:04:06.634Z,29.41
2018-08-23T12:07:11.062Z,29.32
2018-08-23T12:10:18.239Z,29.39
2018-08-23T12:13:22.613Z,29.59
2018-08-23T12:16:27.147Z,29.87
2018-08-23T12:19:31.636Z,29.90
2018-08-23T12:22:43.958Z,29.14
2018-08-23T12:25:48.626Z,28.97
2018-08-23T12:28:58.317Z,29.11
2018-08-23T12:32:03.115Z,29.07
2018-08-23T12:35:07.936Z,29.54
2018-08-23T12:38:20.534Z,30.62
2018-08-23T12:41:30.875Z,31.13
2018-08-23T12:44:48.308Z,31.42
2018-08-23T12:47:52.785Z,31.38
2018-08-23T12:50:59.761Z,30.63
2018-08-23T12:54:04.519Z,31.50
2018-08-23T12:57:09.197Z,31.46
2018-08-23T13:00:13.590Z,30.46
2018-08-23T13:03:18.269Z,30.27
2018-08-23T13:06:22.671Z,30.82
2018-08-23T13:09:27.096Z,30.27
2018-08-23T13:12:31.561Z,30.18
2018-08-23T13:15:36.317Z,30.68
2018-08-23T13:18:41.062Z,30.00
2018-08-23T13:21:49.793Z,29.69
2018-08-23T13:24:59.538Z,29.95
2018-08-23T13:28:04.651Z,29.89
2018-08-23T13:31:09.264Z,30.00
2018-08-23T13:34:13.993Z,30.77
2018-08-23T13:37:24.354Z,31.31
2018-08-23T13:40:31.557Z,31.27
2018-08-23T13:43:36.265Z,30.99
2018-08-23T13:46:40.503Z,30.14
2018-08-23T13:49:45.337Z,29.48
2018-08-23T13:52:49.892Z,29.32
2018-08-23T13:55:56.207Z,28.79
2018-08-23T13:59:01.314Z,28.31
2018-08-23T14:02:05.721Z,27.85
2018-08-23T14:05:10.755Z,27.25
2018-08-23T14:08:15.158Z,27.01
2018-08-23T14:11:19.597Z,26.89
2018-08-23T14:14:24.483Z,26.79
2018-08-23T14:17:28.985Z,26.58
2018-08-23T14:20:33.379Z,26.15
2018-08-23T14:23:37.832Z,25.56
2018-08-23T14:26:42.240Z,24.75
2018-08-23T14:29:47.228Z,23.15
2018-08-23T14:32:51.976Z,21.91
2018-08-23T14:35:57.505Z,21.13
2018-08-23T14:39:01.918Z,20.28
2018-08-23T14:42:06.621Z,19.64
2018-08-23T14:45:11.138Z,19.11
2018-08-23T14:48:17.427Z,18.67
2018-08-23T14:51:21.884Z,18.59
2018-08-23T14:54:31.448Z,18.61
2018-08-23T14:57:37.087Z,18.57
2018-08-23T15:00:41.621Z,18.27
2018-08-23T15:03:46.082Z,18.25
2018-08-23T15:06:50.533Z,17.95
2018-08-23T15:09:55.345Z,17.79
2018-08-23T15:13:00.509Z,17.99
2018-08-23T15:16:05.066Z,18.01
2018-08-23T15:19:09.718Z,17.98
2018-08-23T15:22:14.115Z,18.00
2018-08-23T15:25:18.513Z,18.03
2018-08-23T15:28:22.903Z,18.01
2018-08-23T15:31:27.490Z,17.95
2018-08-23T15:34:32.048Z,17.98
2018-08-23T15:37:36.595Z,17.85
2018-08-23T15:40:41.068Z,17.89
2018-08-23T15:43:45.777Z,17.98
2018-08-23T15:46:50.270Z,18.06
2018-08-23T15:49:55.466Z,18.12
2018-08-23T15:53:00.163Z,18.21
2018-08-23T15:56:04.858Z,18.28
2018-08-23T15:59:09.451Z,18.33
2018-08-23T16:02:14.026Z,18.33
2018-08-23T16:05:18.755Z,18.42
2018-08-23T16:08:23.241Z,18.46
2018-08-23T16:11:28.114Z,18.43
2018-08-23T16:14:33.542Z,18.45
2018-08-23T16:17:43.422Z,18.40
2018-08-23T16:20:52.863Z,18.42
2018-08-23T16:23:57.906Z,18.40
2018-08-23T16:27:05.490Z,18.46
2018-08-23T16:30:10.073Z,18.53
2018-08-23T16:33:14.529Z,18.64
2018-08-23T16:36:19.105Z,18.72
2018-08-23T16:39:23.796Z,18.76
2018-08-23T16:42:28.461Z,18.77
2018-08-23T16:45:32.894Z,18.68
2018-08-23T16:48:37.460Z,18.53
2018-08-23T16:51:42.357Z,18.51
2018-08-23T16:54:47.038Z,18.52
2018-08-23T16:57:53.645Z,18.57
2018-08-23T17:00:58.967Z,18.71
2018-08-23T17:04:03.478Z,18.75
2018-08-23T17:07:08.541Z,18.78
2018-08-23T17:10:13.513Z,18.84
2018-08-23T17:13:24.327Z,18.90
2018-08-23T17:16:34.593Z,18.90
2018-08-23T17:19:49.046Z,19.02
2018-08-23T17:22:53.894Z,18.97
2018-08-23T17:25:58.645Z,18.87
2018-08-23T17:29:03.223Z,18.94
2018-08-23T17:32:08.349Z,19.00
2018-08-23T17:35:12.863Z,19.07
2018-08-23T17:38:17.514Z,19.04
2018-08-23T17:41:21.910Z,19.00
2018-08-23T17:44:26.421Z,18.86
2018-08-23T17:47:31.065Z,18.75
2018-08-23T17:50:35.967Z,18.81
2018-08-23T17:53:41.796Z,18.87
2018-08-23T17:56:46.386Z,18.82
2018-08-23T17:59:51.031Z,18.78
2018-08-23T18:02:55.430Z,18.74
2018-08-23T18:05:59.901Z,18.62
2018-08-23T18:09:07.001Z,18.67
2018-08-23T18:12:11.667Z,18.63
2018-08-23T18:15:16.250Z,18.60
2018-08-23T18:18:22.821Z,18.54
2018-08-23T18:21:28.182Z,18.45
2018-08-23T18:24:33.198Z,18.41
2018-08-23T18:27:52.891Z,18.46
2018-08-23T18:30:57.703Z,18.46
2018-08-23T18:34:03.883Z,18.39
2018-08-23T18:37:08.470Z,18.31
2018-08-23T18:40:13.752Z,18.33
2018-08-23T18:43:18.271Z,18.32
2018-08-23T18:46:23.931Z,18.34
2018-08-23T18:49:29.539Z,18.36
2018-08-23T18:52:34.151Z,18.40
2018-08-23T18:55:38.740Z,18.38
2018-08-23T18:58:43.620Z,18.33
2018-08-23T19:01:48.298Z,18.37
2018-08-23T19:04:53.385Z,18.43
2018-08-23T19:07:57.976Z,18.44
2018-08-23T19:11:02.403Z,18.37
2018-08-23T19:14:06.830Z,18.33
2018-08-23T19:17:17.665Z,18.32
2018-08-23T19:20:22.102Z,18.27
2018-08-23T19:23:26.698Z,18.28
2018-08-23T19:26:31.204Z,18.22
2018-08-23T19:29:35.966Z,18.17
2018-08-23T19:32:40.380Z,18.14
2018-08-23T19:35:44.804Z,18.04
2018-08-23T19:38:49.229Z,18.07
2018-08-23T19:41:54.424Z,18.04
2018-08-23T19:45:00.889Z,18.03
2018-08-23T19:48:05.632Z,18.04
2018-08-23T19:51:10.029Z,17.94
2018-08-23T19:54:14.536Z,17.86
2018-08-23T19:57:19.458Z,17.79
2018-08-23T20:00:24.114Z,17.74
2018-08-23T20:03:28.898Z,17.75
2018-08-23T20:06:33.399Z,17.73
2018-08-23T20:09:38.080Z,17.73
2018-08-23T20:12:42.650Z,17.66
2018-08-23T20:15:47.053Z,17.59
2018-08-23T20:18:51.609Z,17.60
2018-08-23T20:21:56.480Z,17.62
2018-08-23T20:25:01.029Z,17.58
2018-08-23T20:28:05.765Z,17.58
2018-08-23T20:31:10.230Z,17.56
2018-08-23T20:34:14.634Z,17.57
2018-08-23T20:37:19.201Z,17.51
2018-08-23T20:40:23.746Z,17.50
2018-08-23T20:43:28.155Z,17.50
2018-08-23T20:46:32.658Z,17.47
2018-08-23T20:49:37.162Z,17.44
2018-08-23T20:52:41.858Z,17.41
2018-08-23T20:55:49.442Z,17.36
2018-08-23T20:58:54.165Z,17.40
2018-08-23T21:01:58.762Z,17.41
2018-08-23T21:05:03.223Z,17.38
2018-08-23T21:08:07.962Z,17.29
2018-08-23T21:11:12.505Z,17.22
2018-08-23T21:14:16.961Z,17.23
2018-08-23T21:17:21.601Z,17.14
2018-08-23T21:20:26.048Z,17.06
2018-08-23T21:23:30.603Z,17.05
2018-08-23T21:26:35.168Z,16.96
2018-08-23T21:29:40.057Z,17.03
2018-08-23T21:32:44.428Z,16.80
2018-08-23T21:35:48.946Z,16.72
2018-08-23T21:38:53.306Z,16.73
2018-08-23T21:41:57.687Z,16.67
2018-08-23T21:45:02.047Z,16.60
2018-08-23T21:48:06.816Z,16.56
2018-08-23T21:51:11.632Z,16.52
2018-08-23T21:54:16.137Z,16.51
2018-08-23T21:57:20.549Z,16.48
2018-08-23T22:00:24.927Z,16.50
2018-08-23T22:03:29.445Z,16.46
2018-08-23T22:06:33.952Z,16.44
2018-08-23T22:09:38.592Z,16.37
2018-08-23T22:12:42.871Z,16.39
2018-08-23T22:15:49.433Z,16.36
2018-08-23T22:18:54.099Z,16.32
2018-08-23T22:21:58.550Z,16.35
2018-08-23T22:25:03.034Z,16.30
2018-08-23T22:28:07.926Z,16.42
2018-08-23T22:31:12.441Z,16.28
2018-08-23T22:34:18.009Z,16.29
2018-08-23T22:37:22.483Z,16.23
2018-08-23T22:40:27.219Z,16.21
2018-08-23T22:43:32.198Z,16.20
2018-08-23T22:46:36.895Z,16.18
2018-08-23T22:49:41.311Z,16.14
2018-08-23T22:52:45.727Z,16.15
2018-08-23T22:55:50.442Z,16.13
2018-08-23T22:58:54.932Z,16.10
2018-08-23T23:01:59.425Z,16.09
2018-08-23T23:05:03.999Z,16.01
2018-08-23T23:08:08.820Z,15.97
2018-08-23T23:11:13.287Z,15.96
2018-08-23T23:14:24.385Z,15.90
2018-08-23T23:17:29.382Z,15.90
2018-08-23T23:20:33.767Z,15.88
2018-08-23T23:23:38.186Z,15.85
2018-08-23T23:26:42.633Z,15.79
2018-08-23T23:29:47.306Z,15.80
2018-08-23T23:32:51.765Z,15.81
2018-08-23T23:35:56.469Z,15.80
2018-08-23T23:39:01.031Z,15.76
2018-08-23T23:42:05.969Z,15.86
2018-08-23T23:45:10.427Z,15.81
2018-08-23T23:48:14.801Z,15.82
2018-08-23T23:51:19.314Z,15.81
2018-08-23T23:54:23.699Z,15.87
2018-08-23T23:57:29.069Z,15.90
